createdAt,value
2022-10-17T00:01:59.748Z,100996.09
2022-10-17T00:07:01.748Z,100995.81
2022-10-17T00:12:04.793Z,101001.34
2022-10-17T00:17:06.752Z,100990.06
2022-10-17T00:22:08.573Z,100993.63
2022-10-17T00:27:10.562Z,100993.50
2022-10-17T00:32:12.793Z,100988.88
2022-10-17T00:37:14.847Z,100987.81
2022-10-17T00:42:16.764Z,100989.81
2022-10-17T00:47:22.862Z,100987.75
2022-10-17T00:52:28.348Z,100991.38
2022-10-17T00:57:32.101Z,100990.69
2022-10-17T01:02:33.990Z,100986.81
2022-10-17T01:07:37.504Z,100986.91
2022-10-17T01:12:53.215Z,100992.38
2022-10-17T01:18:13.946Z,101000.94
2022-10-17T01:23:28.631Z,100988.53
2022-10-17T01:29:04.098Z,100985.28
2022-10-17T01:34:31.177Z,100992.22
2022-10-17T01:39:48.713Z,100983.19
2022-10-17T01:44:50.930Z,100980.78
2022-10-17T01:49:55.167Z,100980.00
2022-10-17T01:55:33.996Z,100975.09
2022-10-17T02:00:38.223Z,100985.16
2022-10-17T02:05:42.928Z,100974.59
2022-10-17T02:11:11.359Z,100969.50
2022-10-17T02:16:41.399Z,100968.31
2022-10-17T02:22:08.783Z,100960.22
2022-10-17T02:27:26.661Z,100974.50
2022-10-17T02:32:40.538Z,100978.28
2022-10-17T02:37:45.978Z,100971.03
2022-10-17T02:42:50.077Z,100970.88
2022-10-17T02:47:59.582Z,100973.72
2022-10-17T02:53:20.358Z,100976.56
2022-10-17T02:58:29.251Z,100972.78
2022-10-17T03:03:32.399Z,100979.16
2022-10-17T03:08:34.247Z,100984.94
2022-10-17T03:13:39.087Z,100996.16
2022-10-17T03:18:44.348Z,100993.28
2022-10-17T03:23:48.541Z,100992.75
2022-10-17T03:28:53.510Z,101006.69
2022-10-17T03:33:56.411Z,101001.28
2022-10-17T03:38:58.248Z,101003.41
2022-10-17T03:43:59.970Z,101008.38
2022-10-17T03:49:02.123Z,100998.06
2022-10-17T03:54:04.306Z,101003.41
2022-10-17T03:59:06.043Z,101006.00
2022-10-17T04:04:08.094Z,101001.53
2022-10-17T04:09:10.853Z,101007.13
2022-10-17T04:14:12.694Z,101010.81
2022-10-17T04:19:14.812Z,101025.94
2022-10-17T04:24:16.925Z,101041.19
2022-10-17T04:29:18.867Z,101037.16
2022-10-17T04:34:20.692Z,101027.34
2022-10-17T04:39:22.550Z,101041.59
2022-10-17T04:44:24.435Z,101040.94
2022-10-17T04:49:26.102Z,101040.31
2022-10-17T04:54:27.838Z,101042.56
2022-10-17T04:59:29.863Z,101040.06
2022-10-17T05:04:31.505Z,101058.13
2022-10-17T05:09:33.281Z,101054.50
2022-10-17T05:14:34.960Z,101061.31
2022-10-17T05:19:36.640Z,101046.28
2022-10-17T05:24:39.033Z,101050.13
2022-10-17T05:29:40.836Z,101051.63
2022-10-17T05:34:42.690Z,101048.69
2022-10-17T05:39:49.164Z,101052.47
2022-10-17T05:44:53.426Z,101060.47
2022-10-17T05:49:55.318Z,101043.50
2022-10-17T05:54:57.094Z,101054.09
2022-10-17T05:59:59.209Z,101048.84
2022-10-17T06:05:01.058Z,101065.03
2022-10-17T06:10:02.895Z,101069.41
2022-10-17T06:15:05.035Z,101085.41
2022-10-17T06:20:07.569Z,101088.41
2022-10-17T06:25:10.265Z,101087.47
2022-10-17T06:30:12.198Z,101097.97
2022-10-17T06:35:14.134Z,101102.53
2022-10-17T06:40:17.295Z,101104.84
2022-10-17T06:45:19.241Z,101095.47
2022-10-17T06:50:21.058Z,101110.03
2022-10-17T06:55:23.441Z,101112.00
2022-10-17T07:00:26.958Z,101107.44
2022-10-17T07:05:28.673Z,101111.22
2022-10-17T07:10:30.575Z,101127.50
2022-10-17T07:15:32.904Z,101135.56
2022-10-17T07:20:34.777Z,101149.63
2022-10-17T07:25:40.070Z,101156.66
2022-10-17T07:30:42.788Z,101163.72
2022-10-17T07:35:44.590Z,101169.66
2022-10-17T07:40:46.409Z,101185.00
2022-10-17T07:45:48.445Z,101181.81
2022-10-17T07:50:50.669Z,101188.09
2022-10-17T07:55:52.478Z,101185.00
2022-10-17T08:00:54.395Z,101205.59
2022-10-17T08:06:00.986Z,101210.00
2022-10-17T08:11:08.018Z,101211.56
2022-10-17T08:16:12.188Z,101230.56
2022-10-17T08:21:14.071Z,101244.44
2022-10-17T08:26:17.488Z,101236.81
2022-10-17T08:31:20.300Z,101238.97
2022-10-17T08:36:22.544Z,101250.16
2022-10-17T08:42:08.585Z,101261.56
2022-10-17T08:47:16.777Z,101267.81
2022-10-17T08:52:49.326Z,101276.78
2022-10-17T08:57:51.254Z,101271.25
2022-10-17T09:03:19.998Z,101282.97
2022-10-17T09:08:48.299Z,101283.94
2022-10-17T09:14:25.233Z,101290.38
2022-10-17T09:19:37.718Z,101301.91
2022-10-17T09:24:51.509Z,101306.13
2022-10-17T09:30:21.471Z,101314.69
2022-10-17T09:35:30.357Z,101303.84
2022-10-17T09:40:35.256Z,101315.78
2022-10-17T09:45:44.487Z,101315.00
2022-10-17T09:50:53.843Z,101329.28
2022-10-17T09:56:11.125Z,101347.50
2022-10-17T10:01:24.088Z,101342.06
2022-10-17T10:06:26.536Z,101347.00
2022-10-17T10:11:53.319Z,101329.91
2022-10-17T10:16:56.174Z,101322.84
2022-10-17T10:21:58.901Z,101315.53
2022-10-17T10:27:04.606Z,101336.59
2022-10-17T10:32:12.236Z,101341.84
2022-10-17T10:37:20.794Z,101348.81
2022-10-17T10:42:37.827Z,101355.97
2022-10-17T10:47:39.705Z,101368.84
2022-10-17T10:53:10.387Z,101379.28
2022-10-17T10:58:27.966Z,101378.56
2022-10-17T11:03:36.415Z,101384.84
2022-10-17T11:08:48.782Z,101386.72
2022-10-17T11:13:58.561Z,101404.75
2022-10-17T11:19:12.611Z,101414.00
2022-10-17T11:24:17.400Z,101425.66
2022-10-17T11:29:19.293Z,101436.47
2022-10-17T11:34:26.315Z,101430.03
2022-10-17T11:39:30.970Z,101434.59
2022-10-17T11:44:38.557Z,101438.75
2022-10-17T11:49:51.357Z,101435.69
2022-10-17T11:55:00.087Z,101444.16
2022-10-17T12:00:40.838Z,101449.91
2022-10-17T12:06:32.622Z,101457.75
2022-10-17T12:11:42.326Z,101460.25
2022-10-17T12:16:45.329Z,101466.16
2022-10-17T12:22:01.200Z,101474.06
2022-10-17T12:27:36.331Z,101482.63
2022-10-17T12:33:04.331Z,101474.00
2022-10-17T12:38:33.865Z,101488.06
2022-10-17T12:43:40.550Z,101496.91
2022-10-17T12:48:58.942Z,101503.03
2022-10-17T12:54:13.829Z,101493.84
2022-10-17T12:59:27.981Z,101508.38
2022-10-17T13:04:31.729Z,101510.44
2022-10-17T13:09:38.918Z,101507.34
2022-10-17T13:14:43.206Z,101512.91
2022-10-17T13:19:46.492Z,101524.88
2022-10-17T13:24:49.776Z,101526.16
2022-10-17T13:29:51.790Z,101529.19
2022-10-17T13:35:10.291Z,101530.22
2022-10-17T13:40:49.162Z,101553.00
2022-10-17T13:46:13.697Z,101546.72
2022-10-17T13:51:24.456Z,101558.16
2022-10-17T13:56:29.497Z,101576.72
2022-10-17T14:01:32.523Z,101588.63
2022-10-17T14:06:35.057Z,101592.72
2022-10-17T14:11:42.903Z,101588.41
2022-10-17T14:16:45.232Z,101598.94
2022-10-17T14:21:49.658Z,101610.97
2022-10-17T14:26:59.005Z,101623.00
2022-10-17T14:32:05.168Z,101618.69
2022-10-17T14:37:18.787Z,101618.84
2022-10-17T14:42:22.515Z,101613.22
2022-10-17T14:47:43.206Z,101599.22
2022-10-17T14:53:00.847Z,101640.44
2022-10-17T14:58:15.717Z,101645.66
2022-10-17T15:03:19.658Z,101668.69
2022-10-17T15:08:24.148Z,101674.50
2022-10-17T15:13:28.022Z,101692.91
2022-10-17T15:18:32.761Z,101709.94
2022-10-17T15:23:34.624Z,101702.16
2022-10-17T15:28:36.354Z,101702.28
2022-10-17T15:33:38.278Z,101701.44
2022-10-17T15:38:40.182Z,101707.94
2022-10-17T15:43:42.003Z,101717.81
2022-10-17T15:48:44.238Z,101721.34
2022-10-17T15:53:46.592Z,101715.28
2022-10-17T15:58:49.014Z,101711.88
2022-10-17T16:03:51.984Z,101701.00
2022-10-17T16:08:53.826Z,101699.25
2022-10-17T16:13:58.684Z,101722.25
2022-10-17T16:19:02.344Z,101720.78
2022-10-17T16:24:05.433Z,101719.91
2022-10-17T16:29:08.054Z,101725.19
2022-10-17T16:34:13.510Z,101737.59
2022-10-17T16:39:15.577Z,101736.66
2022-10-17T16:44:18.229Z,101748.47
2022-10-17T16:49:20.315Z,101747.75
2022-10-17T16:54:22.207Z,101765.72
2022-10-17T16:59:24.841Z,101762.91
2022-10-17T17:04:26.912Z,101770.78
2022-10-17T17:09:28.851Z,101784.13
2022-10-17T17:14:30.659Z,101783.22
2022-10-17T17:19:32.581Z,101778.53
2022-10-17T17:24:34.447Z,101789.63
2022-10-17T17:29:36.261Z,101794.00
2022-10-17T17:34:38.376Z,101781.66
2022-10-17T17:39:40.907Z,101783.13
2022-10-17T17:44:43.014Z,101786.34
2022-10-17T17:49:44.832Z,101791.47
2022-10-17T17:54:46.845Z,101800.34
2022-10-17T17:59:50.034Z,101804.22
2022-10-17T18:04:51.970Z,101811.16
2022-10-17T18:09:54.123Z,101816.41
2022-10-17T18:14:56.263Z,101825.38
2022-10-17T18:19:58.030Z,101824.81
2022-10-17T18:24:59.862Z,101821.59
2022-10-17T18:30:02.057Z,101829.28
2022-10-17T18:35:03.990Z,101825.75
2022-10-17T18:40:06.299Z,101823.09
2022-10-17T18:45:08.844Z,101822.72
2022-10-17T18:50:10.558Z,101818.81
2022-10-17T18:55:12.300Z,101826.50
2022-10-17T19:00:14.416Z,101838.91
2022-10-17T19:05:16.212Z,101838.91
2022-10-17T19:10:18.010Z,101849.50
2022-10-17T19:15:22.454Z,101855.00
2022-10-17T19:20:27.587Z,101861.47
2022-10-17T19:25:30.734Z,101868.34
2022-10-17T19:30:32.509Z,101871.66
2022-10-17T19:35:35.283Z,101869.75
2022-10-17T19:40:41.205Z,101858.84
2022-10-17T19:45:43.746Z,101848.38
2022-10-17T19:50:45.762Z,101857.53
2022-10-17T19:55:47.690Z,101855.00
2022-10-17T20:00:51.862Z,101846.63
2022-10-17T20:05:53.791Z,101845.38
2022-10-17T20:10:55.658Z,101836.75
2022-10-17T20:15:59.073Z,101832.91
2022-10-17T20:21:09.937Z,101849.41
2022-10-17T20:31:44.115Z,101867.19
2022-10-17T20:36:46.870Z,101859.59
2022-10-17T20:41:48.978Z,101876.75
2022-10-17T20:47:01.288Z,101873.66
2022-10-17T20:52:04.208Z,101865.06
2022-10-17T20:57:06.214Z,101870.84
2022-10-17T21:02:12.334Z,101872.22
2022-10-17T21:07:14.394Z,101869.53
2022-10-17T21:12:25.876Z,101876.34
2022-10-17T21:17:38.548Z,101866.47
2022-10-17T21:22:40.349Z,101876.16
2022-10-17T21:27:42.096Z,101876.91
2022-10-17T21:32:51.963Z,101890.50
2022-10-17T21:37:53.987Z,101883.81
2022-10-17T21:42:55.983Z,101886.94
2022-10-17T21:48:13.578Z,101881.69
2022-10-17T21:53:15.567Z,101880.47
2022-10-17T21:58:21.069Z,101895.16
2022-10-17T22:03:22.986Z,101876.16
2022-10-17T22:08:26.059Z,101895.09
2022-10-17T22:13:27.953Z,101892.22
2022-10-17T22:18:30.162Z,101902.25
2022-10-17T22:23:32.175Z,101904.22
2022-10-17T22:28:34.573Z,101911.03
2022-10-17T22:33:38.476Z,101910.66
2022-10-17T22:38:40.481Z,101911.34
2022-10-17T22:43:42.496Z,101927.66
2022-10-17T22:48:44.570Z,101934.13
2022-10-17T22:53:46.360Z,101929.38
2022-10-17T22:58:48.310Z,101943.06
2022-10-17T23:03:51.429Z,101932.00
2022-10-17T23:08:53.268Z,101932.16
2022-10-17T23:13:55.062Z,101927.97
2022-10-17T23:18:58.211Z,101922.13
2022-10-17T23:23:59.990Z,101926.41
2022-10-17T23:29:01.971Z,101917.63
2022-10-17T23:34:03.851Z,101919.84
2022-10-17T23:39:06.989Z,101916.13
2022-10-17T23:44:10.354Z,101913.31
2022-10-17T23:49:12.308Z,101914.13
2022-10-17T23:54:14.167Z,101924.25
2022-10-17T23:59:15.949Z,101917.59
